x

Smith Island, Wa (sisw1) Weather Station

5:50am - Sat 18th Aug 2018 All times are PDT. -7 hours from GMT.

  • Wind
    5mph, 6mph gusts
  • Air Temp 53°f
  • Sea Pressure 1023.4mb
  • Smith Island, Wa
  • Smith Island, Wa

More Historic Weather Station data

Upgrade to MSW Pro to gain access to the past 30 days of data for over 8000 Wavebouys and Weather Stations around the globe.

Join

Comparision Forecast

View Surf forecast
   
Sat 08/18 5:50am 5 6 mph 1023.4mb 53f
4:50am 5 5 mph 1023.3mb 53f
3:50am 3 6 mph 1023.2mb 53f
2:50am 6 8 mph 1023.4mb 54f
1:50am 5 6 mph 1023.6mb 54f
12:50am 2 5 mph 1023.4mb 53f
Fri 08/17 11:50pm 6 6 mph 1023.4mb 54f
10:50pm 3 5 mph 1023.3mb 54f
8:50pm 10 14 mph 1022.9mb 54f
7:50pm 10 15 mph 1022.5mb 56f
6:50pm 9 10 mph 1022.7mb 58f
5:50pm 8 9 mph 1022.8mb 58f
4:50pm 7 8 mph 1023mb 62f
3:50pm 11 13 mph 1023.2mb 62f
2:50pm 8 9 mph 1023.6mb 58f
1:50pm 10 11 mph 1023.9mb 57f
12:50pm 14 15 mph 1024.2mb 56f
11:50am 5 6 mph 1024.4mb 55f
10:50am 6 7 mph 1024.3mb 54f
9:50am 7 7 mph 1024mb 54f
8:50am 7 8 mph 1023.6mb 54f
7:50am 11 14 mph 1023.1mb 54f
6:50am 14 15 mph 1022.4mb 54f
5:50am 17 20 mph 1021.7mb 54f
4:50am 20 22 mph 1021.4mb 54f
3:50am 21 24 mph 1021.3mb 54f
1:50am 23 28 mph 1020.4mb 54f
12:50am 20 22 mph 1020.2mb 54f
Thu 08/16 11:50pm 23 25 mph 1019.9mb 54f
10:50pm 24 26 mph 1019.4mb 54f
9:50pm 25 30 mph 1019.1mb 54f
8:50pm 22 25 mph 1018.6mb 54f
6:50pm 9 10 mph 1018.3mb 56f
5:50pm 10 11 mph 1018.2mb 58f
4:50pm 8 8 mph 1018.3mb 58f
3:50pm 6 8 mph 1018.6mb 58f
2:50pm 6 7 mph 1018.9mb 57f
1:50pm 7 7 mph 1019mb 55f
12:50pm 8 9 mph 1019mb 55f
11:50am 13 15 mph 1019mb 55f
10:50am 15 17 mph 1018.7mb 54f
9:50am 10 13 mph 1018.5mb 54f
8:50am 13 15 mph 1018.1mb 53f
7:50am 17 18 mph 1017.7mb 52f
6:50am 20 21 mph 1017mb 52f
5:50am 18 24 mph 1016.2mb 52f
4:50am 18 22 mph 1015.9mb 52f
3:50am 17 20 mph 1015.4mb 53f
2:50am 23 25 mph 1014.7mb 53f
1:50am 20 24 mph 1014.1mb 53f
12:50am 21 23 mph 1013.8mb 53f
Wed 08/15 11:50pm 22 24 mph 1013.1mb 53f
10:50pm 13 17 mph 1013.3mb 56f
9:50pm 6 10 mph 1012.9mb 54f
8:50pm 7 9 mph 1012.4mb 54f
7:50pm 7 9 mph 1012.1mb 55f
6:50pm 6 7 mph 1012.3mb 55f
5:50pm 5 6 mph 1012.4mb 56f
4:50pm 10 13 mph 1012.5mb 56f
3:50pm 9 11 mph 1012.8mb 58f
2:50pm 3 6 mph 1013.1mb 60f
1:50pm 11 14 mph 1013.3mb 60f
12:50pm 11 14 mph 1013.7mb 58f
11:50am 8 9 mph 1013.8mb 60f
10:50am 5 5 mph 1013.5mb 60f
9:50am  -  1 mph 1013.6mb 59f
8:50am 3 3 mph 1013.4mb 59f
7:50am 2 2 mph 1013.4mb 57f
6:50am 3 3 mph 1012.7mb 57f
5:50am 2 2 mph 1012.5mb 55f
4:50am 3 5 mph 1012.1mb 57f
3:50am 7 7 mph 1011.7mb 57f
2:50am 7 8 mph 1011.5mb 59f
1:50am 5 6 mph 1011.2mb 61f
12:50am 5 6 mph 1011.1mb 59f
Tue 08/14 11:50pm  -  1 mph 1010.8mb 57f
10:50pm 2 3 mph 1010.7mb 57f
9:50pm 10 13 mph 1010.7mb 59f
8:50pm 6 6 mph 1010.4mb 61f
7:50pm 9 10 mph 1010.4mb 62f
6:50pm 7 8 mph 1010.6mb 65f
5:50pm 7 8 mph 1011.1mb 68f
4:50pm 3 6 mph 1011.6mb 66f
3:50pm 6 6 mph 1012.2mb 67f